sensor_id;sensor_type;location;lat;lon;timestamp;P1;durP1;ratioP1;P2;durP2;ratioP2
72105;SDS011;59975;47.646;18.318;2023-01-23T00:00:28;70.82;;;24.50;;
72105;SDS011;59975;47.646;18.318;2023-01-23T00:02:53;68.53;;;22.43;;
72105;SDS011;59975;47.646;18.318;2023-01-23T00:05:20;79.75;;;24.60;;
72105;SDS011;59975;47.646;18.318;2023-01-23T00:07:45;77.83;;;26.50;;
72105;SDS011;59975;47.646;18.318;2023-01-23T00:10:11;85.27;;;28.43;;
72105;SDS011;59975;47.646;18.318;2023-01-23T00:12:39;76.25;;;25.30;;
72105;SDS011;59975;47.646;18.318;2023-01-23T00:15:05;101.82;;;28.70;;
72105;SDS011;59975;47.646;18.318;2023-01-23T00:17:31;107.17;;;35.80;;
72105;SDS011;59975;47.646;18.318;2023-01-23T00:19:57;121.40;;;55.72;;
72105;SDS011;59975;47.646;18.318;2023-01-23T00:22:23;138.87;;;50.50;;
72105;SDS011;59975;47.646;18.318;2023-01-23T00:24:49;98.40;;;33.05;;
72105;SDS011;59975;47.646;18.318;2023-01-23T00:27:14;116.43;;;49.00;;
72105;SDS011;59975;47.646;18.318;2023-01-23T00:29:40;133.13;;;58.47;;
72105;SDS011;59975;47.646;18.318;2023-01-23T00:32:05;163.90;;;58.13;;
72105;SDS011;59975;47.646;18.318;2023-01-23T00:34:30;128.45;;;52.13;;
72105;SDS011;59975;47.646;18.318;2023-01-23T00:36:56;140.00;;;53.93;;
72105;SDS011;59975;47.646;18.318;2023-01-23T00:39:21;177.33;;;72.53;;
72105;SDS011;59975;47.646;18.318;2023-01-23T00:41:48;136.30;;;39.13;;
72105;SDS011;59975;47.646;18.318;2023-01-23T00:44:14;92.50;;;26.00;;
72105;SDS011;59975;47.646;18.318;2023-01-23T00:46:40;93.68;;;26.92;;
72105;SDS011;59975;47.646;18.318;2023-01-23T00:49:06;108.72;;;27.45;;
72105;SDS011;59975;47.646;18.318;2023-01-23T00:51:32;94.80;;;27.30;;
72105;SDS011;59975;47.646;18.318;2023-01-23T00:53:58;101.68;;;25.55;;
72105;SDS011;59975;47.646;18.318;2023-01-23T00:56:24;87.05;;;26.48;;
72105;SDS011;59975;47.646;18.318;2023-01-23T00:58:50;93.00;;;28.10;;
72105;SDS011;59975;47.646;18.318;2023-01-23T01:01:16;112.70;;;28.35;;
72105;SDS011;59975;47.646;18.318;2023-01-23T01:03:42;93.67;;;27.57;;
72105;SDS011;59975;47.646;18.318;2023-01-23T01:06:08;95.55;;;27.55;;
72105;SDS011;59975;47.646;18.318;2023-01-23T01:08:34;123.63;;;27.65;;
72105;SDS011;59975;47.646;18.318;2023-01-23T01:11:00;115.90;;;29.57;;
72105;SDS011;59975;47.646;18.318;2023-01-23T01:13:25;136.77;;;29.95;;
72105;SDS011;59975;47.646;18.318;2023-01-23T01:15:51;95.03;;;28.08;;
72105;SDS011;59975;47.646;18.318;2023-01-23T01:18:17;113.15;;;28.98;;
72105;SDS011;59975;47.646;18.318;2023-01-23T01:20:44;120.37;;;29.03;;
72105;SDS011;59975;47.646;18.318;2023-01-23T01:23:10;95.30;;;29.88;;
72105;SDS011;59975;47.646;18.318;2023-01-23T01:25:36;108.72;;;29.13;;
72105;SDS011;59975;47.646;18.318;2023-01-23T01:28:02;107.57;;;28.40;;
72105;SDS011;59975;47.646;18.318;2023-01-23T01:30:28;114.93;;;29.55;;
72105;SDS011;59975;47.646;18.318;2023-01-23T01:32:54;98.50;;;28.93;;
72105;SDS011;59975;47.646;18.318;2023-01-23T01:35:20;121.90;;;30.33;;
72105;SDS011;59975;47.646;18.318;2023-01-23T01:37:47;106.25;;;28.35;;
72105;SDS011;59975;47.646;18.318;2023-01-23T01:40:18;115.45;;;27.58;;
72105;SDS011;59975;47.646;18.318;2023-01-23T01:42:52;93.90;;;28.80;;
72105;SDS011;59975;47.646;18.318;2023-01-23T01:51:12;100.47;;;32.33;;
72105;SDS011;59975;47.646;18.318;2023-01-23T01:53:43;133.93;;;43.65;;
72105;SDS011;59975;47.646;18.318;2023-01-23T01:56:12;115.90;;;33.83;;
72105;SDS011;59975;47.646;18.318;2023-01-23T01:58:38;145.65;;;48.65;;
72105;SDS011;59975;47.646;18.318;2023-01-23T02:01:06;120.07;;;41.05;;
72105;SDS011;59975;47.646;18.318;2023-01-23T02:03:32;140.10;;;50.60;;
72105;SDS011;59975;47.646;18.318;2023-01-23T02:05:58;123.00;;;45.27;;
72105;SDS011;59975;47.646;18.318;2023-01-23T02:08:33;136.85;;;38.28;;
72105;SDS011;59975;47.646;18.318;2023-01-23T02:11:04;149.03;;;37.03;;
72105;SDS011;59975;47.646;18.318;2023-01-23T02:13:31;143.43;;;47.95;;
72105;SDS011;59975;47.646;18.318;2023-01-23T02:16:10;140.18;;;50.53;;
72105;SDS011;59975;47.646;18.318;2023-01-23T02:18:44;153.48;;;38.85;;
72105;SDS011;59975;47.646;18.318;2023-01-23T02:21:12;168.10;;;50.58;;
72105;SDS011;59975;47.646;18.318;2023-01-23T02:26:47;106.57;;;28.83;;
72105;SDS011;59975;47.646;18.318;2023-01-23T02:29:12;93.78;;;24.13;;
72105;SDS011;59975;47.646;18.318;2023-01-23T02:31:39;73.10;;;24.42;;
72105;SDS011;59975;47.646;18.318;2023-01-23T02:34:08;79.95;;;26.05;;
72105;SDS011;59975;47.646;18.318;2023-01-23T02:36:35;81.40;;;24.20;;
72105;SDS011;59975;47.646;18.318;2023-01-23T02:41:55;108.87;;;25.17;;
72105;SDS011;59975;47.646;18.318;2023-01-23T02:44:26;135.75;;;28.15;;
72105;SDS011;59975;47.646;18.318;2023-01-23T02:46:56;117.22;;;27.92;;
72105;SDS011;59975;47.646;18.318;2023-01-23T02:49:24;85.03;;;27.85;;
72105;SDS011;59975;47.646;18.318;2023-01-23T02:51:50;99.30;;;26.42;;
72105;SDS011;59975;47.646;18.318;2023-01-23T02:54:17;126.30;;;26.20;;
72105;SDS011;59975;47.646;18.318;2023-01-23T02:56:43;97.93;;;24.30;;
72105;SDS011;59975;47.646;18.318;2023-01-23T02:59:09;85.05;;;25.42;;
72105;SDS011;59975;47.646;18.318;2023-01-23T03:01:53;74.70;;;24.10;;
72105;SDS011;59975;47.646;18.318;2023-01-23T03:04:19;88.88;;;27.45;;
72105;SDS011;59975;47.646;18.318;2023-01-23T03:06:45;106.78;;;26.52;;
72105;SDS011;59975;47.646;18.318;2023-01-23T03:09:12;104.17;;;25.50;;
72105;SDS011;59975;47.646;18.318;2023-01-23T03:11:40;95.20;;;25.30;;
72105;SDS011;59975;47.646;18.318;2023-01-23T03:14:08;91.38;;;27.73;;
72105;SDS011;59975;47.646;18.318;2023-01-23T03:16:35;102.33;;;28.40;;
72105;SDS011;59975;47.646;18.318;2023-01-23T03:19:01;108.10;;;26.38;;
72105;SDS011;59975;47.646;18.318;2023-01-23T03:21:32;123.45;;;26.08;;
72105;SDS011;59975;47.646;18.318;2023-01-23T03:24:04;102.13;;;23.37;;
72105;SDS011;59975;47.646;18.318;2023-01-23T03:26:31;74.90;;;21.48;;
72105;SDS011;59975;47.646;18.318;2023-01-23T03:28:57;94.15;;;22.42;;
72105;SDS011;59975;47.646;18.318;2023-01-23T03:31:42;78.13;;;21.40;;
72105;SDS011;59975;47.646;18.318;2023-01-23T03:34:07;104.07;;;23.13;;
72105;SDS011;59975;47.646;18.318;2023-01-23T03:36:33;60.40;;;23.27;;
72105;SDS011;59975;47.646;18.318;2023-01-23T03:39:05;77.20;;;22.70;;
72105;SDS011;59975;47.646;18.318;2023-01-23T03:41:50;81.60;;;21.27;;
72105;SDS011;59975;47.646;18.318;2023-01-23T03:44:17;49.50;;;22.10;;
72105;SDS011;59975;47.646;18.318;2023-01-23T03:46:44;111.75;;;21.73;;
72105;SDS011;59975;47.646;18.318;2023-01-23T03:49:10;111.40;;;23.30;;
72105;SDS011;59975;47.646;18.318;2023-01-23T03:51:35;118.30;;;21.07;;
72105;SDS011;59975;47.646;18.318;2023-01-23T03:54:01;112.77;;;20.87;;
72105;SDS011;59975;47.646;18.318;2023-01-23T03:56:27;98.65;;;23.92;;
72105;SDS011;59975;47.646;18.318;2023-01-23T03:58:52;76.70;;;23.83;;
72105;SDS011;59975;47.646;18.318;2023-01-23T04:01:18;69.07;;;22.30;;
72105;SDS011;59975;47.646;18.318;2023-01-23T04:03:43;85.53;;;21.63;;
72105;SDS011;59975;47.646;18.318;2023-01-23T04:06:09;85.27;;;21.80;;
72105;SDS011;59975;47.646;18.318;2023-01-23T04:08:34;66.53;;;22.30;;
72105;SDS011;59975;47.646;18.318;2023-01-23T04:11:04;58.67;;;21.27;;
72105;SDS011;59975;47.646;18.318;2023-01-23T04:13:31;71.13;;;23.75;;
72105;SDS011;59975;47.646;18.318;2023-01-23T04:15:56;56.03;;;24.13;;
72105;SDS011;59975;47.646;18.318;2023-01-23T04:18:22;71.57;;;23.05;;
72105;SDS011;59975;47.646;18.318;2023-01-23T04:20:48;61.60;;;23.57;;
72105;SDS011;59975;47.646;18.318;2023-01-23T04:23:13;71.35;;;24.80;;
72105;SDS011;59975;47.646;18.318;2023-01-23T04:25:39;66.13;;;21.43;;
72105;SDS011;59975;47.646;18.318;2023-01-23T04:28:04;65.77;;;21.47;;
72105;SDS011;59975;47.646;18.318;2023-01-23T04:30:30;75.57;;;22.30;;
72105;SDS011;59975;47.646;18.318;2023-01-23T04:32:55;64.68;;;19.77;;
72105;SDS011;59975;47.646;18.318;2023-01-23T04:35:21;61.17;;;21.03;;
72105;SDS011;59975;47.646;18.318;2023-01-23T04:37:46;55.77;;;20.57;;
72105;SDS011;59975;47.646;18.318;2023-01-23T04:40:12;56.37;;;19.93;;
72105;SDS011;59975;47.646;18.318;2023-01-23T04:42:37;64.28;;;21.08;;
72105;SDS011;59975;47.646;18.318;2023-01-23T04:45:03;45.10;;;20.07;;
72105;SDS011;59975;47.646;18.318;2023-01-23T04:47:28;65.65;;;21.55;;
72105;SDS011;59975;47.646;18.318;2023-01-23T04:49:54;55.17;;;20.30;;
72105;SDS011;59975;47.646;18.318;2023-01-23T04:52:19;49.47;;;20.40;;
72105;SDS011;59975;47.646;18.318;2023-01-23T04:54:45;66.70;;;19.47;;
72105;SDS011;59975;47.646;18.318;2023-01-23T04:57:10;60.03;;;19.08;;
72105;SDS011;59975;47.646;18.318;2023-01-23T04:59:36;51.17;;;19.17;;
72105;SDS011;59975;47.646;18.318;2023-01-23T05:02:01;70.63;;;18.70;;
72105;SDS011;59975;47.646;18.318;2023-01-23T05:04:27;48.13;;;19.43;;
72105;SDS011;59975;47.646;18.318;2023-01-23T05:06:52;48.33;;;18.80;;
72105;SDS011;59975;47.646;18.318;2023-01-23T05:09:18;67.47;;;19.83;;
72105;SDS011;59975;47.646;18.318;2023-01-23T05:11:43;54.87;;;19.70;;
72105;SDS011;59975;47.646;18.318;2023-01-23T05:14:09;62.55;;;20.02;;
72105;SDS011;59975;47.646;18.318;2023-01-23T05:16:35;48.75;;;19.45;;
72105;SDS011;59975;47.646;18.318;2023-01-23T05:19:01;50.03;;;19.63;;
72105;SDS011;59975;47.646;18.318;2023-01-23T05:21:26;56.97;;;20.35;;
72105;SDS011;59975;47.646;18.318;2023-01-23T05:23:52;58.23;;;20.27;;
72105;SDS011;59975;47.646;18.318;2023-01-23T05:26:17;49.20;;;18.77;;
72105;SDS011;59975;47.646;18.318;2023-01-23T05:28:43;46.20;;;19.47;;
72105;SDS011;59975;47.646;18.318;2023-01-23T05:31:08;43.55;;;19.58;;
72105;SDS011;59975;47.646;18.318;2023-01-23T05:33:34;44.37;;;18.83;;
72105;SDS011;59975;47.646;18.318;2023-01-23T05:35:59;61.20;;;23.73;;
72105;SDS011;59975;47.646;18.318;2023-01-23T05:38:25;63.17;;;23.73;;
72105;SDS011;59975;47.646;18.318;2023-01-23T05:40:51;67.87;;;24.57;;
72105;SDS011;59975;47.646;18.318;2023-01-23T05:43:16;63.07;;;22.27;;
72105;SDS011;59975;47.646;18.318;2023-01-23T05:45:42;56.03;;;23.05;;
72105;SDS011;59975;47.646;18.318;2023-01-23T05:48:07;73.60;;;22.27;;
72105;SDS011;59975;47.646;18.318;2023-01-23T05:50:33;53.70;;;21.50;;
72105;SDS011;59975;47.646;18.318;2023-01-23T05:52:58;46.50;;;21.25;;
72105;SDS011;59975;47.646;18.318;2023-01-23T05:55:24;48.27;;;21.30;;
72105;SDS011;59975;47.646;18.318;2023-01-23T05:57:49;47.30;;;19.03;;
72105;SDS011;59975;47.646;18.318;2023-01-23T06:00:15;41.07;;;18.90;;
72105;SDS011;59975;47.646;18.318;2023-01-23T06:02:41;46.17;;;18.83;;
72105;SDS011;59975;47.646;18.318;2023-01-23T06:05:07;46.63;;;21.45;;
72105;SDS011;59975;47.646;18.318;2023-01-23T06:07:33;54.45;;;20.38;;
72105;SDS011;59975;47.646;18.318;2023-01-23T06:09:58;55.72;;;19.55;;
72105;SDS011;59975;47.646;18.318;2023-01-23T06:12:24;53.77;;;20.10;;
72105;SDS011;59975;47.646;18.318;2023-01-23T06:15:02;54.97;;;19.43;;
72105;SDS011;59975;47.646;18.318;2023-01-23T06:17:44;60.83;;;20.17;;
72105;SDS011;59975;47.646;18.318;2023-01-23T06:20:10;43.15;;;18.85;;
72105;SDS011;59975;47.646;18.318;2023-01-23T06:22:36;51.28;;;19.83;;
72105;SDS011;59975;47.646;18.318;2023-01-23T06:25:02;49.97;;;20.07;;
72105;SDS011;59975;47.646;18.318;2023-01-23T06:27:28;44.50;;;19.40;;
72105;SDS011;59975;47.646;18.318;2023-01-23T06:29:56;46.38;;;18.50;;
72105;SDS011;59975;47.646;18.318;2023-01-23T06:32:22;50.60;;;18.80;;
72105;SDS011;59975;47.646;18.318;2023-01-23T06:34:48;44.15;;;19.33;;
72105;SDS011;59975;47.646;18.318;2023-01-23T06:37:13;45.27;;;17.57;;
72105;SDS011;59975;47.646;18.318;2023-01-23T06:39:39;67.80;;;19.98;;
72105;SDS011;59975;47.646;18.318;2023-01-23T06:42:05;55.97;;;19.83;;
72105;SDS011;59975;47.646;18.318;2023-01-23T06:44:39;60.33;;;23.65;;
72105;SDS011;59975;47.646;18.318;2023-01-23T06:47:13;61.65;;;21.45;;
72105;SDS011;59975;47.646;18.318;2023-01-23T06:49:50;60.50;;;18.73;;
72105;SDS011;59975;47.646;18.318;2023-01-23T06:53:14;52.58;;;22.02;;
72105;SDS011;59975;47.646;18.318;2023-01-23T07:02:46;47.95;;;19.05;;
72105;SDS011;59975;47.646;18.318;2023-01-23T07:15:24;51.92;;;18.35;;
72105;SDS011;59975;47.646;18.318;2023-01-23T07:17:53;54.13;;;18.60;;
72105;SDS011;59975;47.646;18.318;2023-01-23T07:20:18;40.67;;;17.97;;
72105;SDS011;59975;47.646;18.318;2023-01-23T07:22:54;58.75;;;18.67;;
72105;SDS011;59975;47.646;18.318;2023-01-23T07:25:21;60.97;;;23.05;;
72105;SDS011;59975;47.646;18.318;2023-01-23T07:27:56;50.05;;;23.05;;
72105;SDS011;59975;47.646;18.318;2023-01-23T07:30:25;43.97;;;20.00;;
72105;SDS011;59975;47.646;18.318;2023-01-23T07:32:51;51.30;;;19.88;;
72105;SDS011;59975;47.646;18.318;2023-01-23T07:35:17;50.70;;;20.98;;
72105;SDS011;59975;47.646;18.318;2023-01-23T07:37:43;59.53;;;22.53;;
72105;SDS011;59975;47.646;18.318;2023-01-23T07:47:03;65.38;;;28.05;;
